»·PEaware :: N516DM KEUG-KPDX

N516DM :: KEUG-KPDX

FLIGHT INFORMATION

Flight Status: Arrived
Operator: Privately registered:
United States
More flights under this callsign
Pilot: Thomas H. (5912)
Aircraft: BEECH AIRCRAFT DEBONAIR BONANZA
(BE33)
More flights by this aircraft type
Origin: KEUG Mahlon Sweet
United States
Destination: KPDX Portland Intl
United States
More flights between these airports :: More routes between these airports
Route: +
File this flight plan on PilotEdge
Remarks:
Altitude:
(Current/Filed)
0ft
Speed:
(Current/Filed)
0kts
Departed: 13-Aug-18 08:34 AM
Arrived: 13-Aug-18 09:18 AM
Distance/Time
Traveled:
92nm/0:44
Distance/Time
To Go:
Arrived

Flight Plot

Page will automatically refresh every two minutes.

Flight plan parsing failed; only flown route is shown


Map Options




Map Legend


Flown Route
Filed Route
Departure Airport
Arrival Airport
Navaid (VOR, NDB)
Fix

Horizontal Profiles

Position Reports

Time Latitude Longitude Heading Altitude Ground
Speed
13-Aug-18 08:24 44.123732 -123.210659 209 364ft 0kts
13-Aug-18 08:25 44.123732 -123.210659 209 364ft 0kts
13-Aug-18 08:26 44.123732 -123.210659 209 364ft 0kts
13-Aug-18 08:27 44.123732 -123.210659 209 364ft 0kts
13-Aug-18 08:28 44.123732 -123.210659 209 364ft 0kts
13-Aug-18 08:29 44.123732 -123.210659 209 364ft 0kts
13-Aug-18 08:30 44.123732 -123.210659 209 364ft 0kts
13-Aug-18 08:31 44.125658 -123.209592 357 361ft 15kts
13-Aug-18 08:32 44.124082 -123.204142 180 366ft 24kts
13-Aug-18 08:33 44.116662 -123.203658 105 371ft 9kts
13-Aug-18 08:34 44.116652 -123.203596 96 371ft 0kts
13-Aug-18 08:35 44.119914 -123.202556 359 372ft 74kts
13-Aug-18 08:36 44.145120 -123.201978 5 1226ft 105kts
13-Aug-18 08:37 44.174736 -123.205055 341 2105ft 109kts
13-Aug-18 08:38 44.203828 -123.214979 351 2994ft 107kts
13-Aug-18 08:39 44.232935 -123.223977 346 3848ft 108kts
13-Aug-18 08:40 44.262444 -123.233165 351 4627ft 110kts
13-Aug-18 08:41 44.292657 -123.238739 353 5383ft 110kts
13-Aug-18 08:42 44.326957 -123.249735 345 5566ft 142kts
13-Aug-18 08:43 44.367407 -123.262599 348 5549ft 153kts
13-Aug-18 08:44 44.409631 -123.274317 350 5551ft 156kts
13-Aug-18 08:45 44.452584 -123.284082 350 5554ft 156kts
13-Aug-18 08:46 44.495570 -123.293738 350 5556ft 156kts
13-Aug-18 08:47 44.538045 -123.283088 13 5556ft 156kts
13-Aug-18 08:48 44.580377 -123.268329 13 5556ft 157kts
13-Aug-18 08:49 44.622648 -123.253555 13 5556ft 157kts
13-Aug-18 08:50 44.664997 -123.238754 13 5555ft 157kts
13-Aug-18 08:51 44.707896 -123.223925 13 5542ft 160kts
13-Aug-18 08:52 44.751073 -123.209050 13 5536ft 160kts
13-Aug-18 08:53 44.794347 -123.194384 13 5530ft 159kts
13-Aug-18 08:54 44.837297 -123.179621 14 5525ft 159kts
13-Aug-18 08:55 44.880017 -123.163786 15 5522ft 159kts
13-Aug-18 08:56 44.922674 -123.147441 15 5521ft 158kts
13-Aug-18 08:57 44.965181 -123.131251 15 5520ft 158kts
13-Aug-18 08:58 45.007568 -123.114820 15 5519ft 158kts
13-Aug-18 08:59 45.049902 -123.097841 15 5519ft 158kts
13-Aug-18 09:00 45.092154 -123.080483 15 5519ft 158kts
13-Aug-18 09:01 45.134099 -123.063013 15 5520ft 159kts
13-Aug-18 09:02 45.176681 -123.045016 16 5503ft 160kts
13-Aug-18 09:03 45.219164 -123.027171 15 5502ft 159kts
13-Aug-18 09:04 45.261743 -123.009348 15 5502ft 159kts
13-Aug-18 09:05 45.304120 -122.991538 15 5502ft 159kts
13-Aug-18 09:06 45.339142 -122.954199 42 5502ft 159kts
13-Aug-18 09:07 45.371859 -122.909731 42 5249ft 170kts
13-Aug-18 09:08 45.406079 -122.862680 46 4751ft 171kts
13-Aug-18 09:09 45.438564 -122.813910 45 4250ft 168kts
13-Aug-18 09:10 45.469650 -122.766486 45 3741ft 159kts
13-Aug-18 09:11 45.499255 -122.720712 45 3239ft 156kts
13-Aug-18 09:12 45.527645 -122.677521 38 3016ft 143kts
13-Aug-18 09:13 45.558084 -122.644017 32 2972ft 134kts
13-Aug-18 09:14 45.587614 -122.612243 35 2906ft 134kts
13-Aug-18 09:15 45.600751 -122.569534 111 2139ft 130kts
13-Aug-18 09:16 45.582370 -122.525678 129 1216ft 123kts
13-Aug-18 09:17 45.576691 -122.549148 303 364ft 90kts
13-Aug-18 09:18 45.586309 -122.573870 301 20ft 49kts
13-Aug-18 09:19 45.588807 -122.582031 211 20ft 0kts
13-Aug-18 09:20 45.586395 -122.578556 209 20ft 9kts

Navigation Log

Ident Type
Flight plan parsing failed, navigation log unavailable